Toronto, South Dakota
Current Conditions -  °F | °C
As of 1:34 PM on Thursday 23 Oct 2014 (Local Time) from KCNB Reporting Station
Clear Clear  
Wind Chill: 69°   Ceiling: Unl
Heat Index: 69°   Visibility: 10mi
Dew Point: 37°   Wind: 12mph
Humidity: 31%   Direction: 250°WSW
Pressure: 29.97"   Gusts: 16mph
Location:  44.57°N, 96.64°W
Report Text: KCNB 231834Z AUTO 25010G14KT 10SM CLR 21/03 A2997 RMK AO2 T02070028
Loading
Personal Weather Stations






























Interactive Weather Map
Tropical Storm Tracking
New forecast layout! Learn more

10-Day Weather Forecast

Advertisements
Track Severe Weather on mobile